Time;durP1;ratioP1;P1;durP2;ratioP2;P2;SDS_P1;SDS_P2;PMS_P1;PMS_P2;Temp;Humidity;BMP_temperature;BMP_pressure;BME280_temperature;BME280_humidity;BME280_pressure;Samples;Min_cycle;Max_cycle;Signal;HPM_P1;HPM_P2
2021/07/25 00:00:40;;;;;;;0.43;0.43;;;19.90;99.90;;;;;;5091588;28;20191;-72
2021/07/25 00:03:07;;;;;;;0.40;0.40;;;19.70;99.90;;;;;;5091582;28;20623;-72
2021/07/25 00:05:34;;;;;;;0.40;0.40;;;19.60;99.90;;;;;;5091485;28;20160;-72
2021/07/25 00:08:00;;;;;;;1.48;0.90;;;19.60;99.90;;;;;;5091513;28;20183;-72
2021/07/25 00:10:27;;;;;;;0.98;0.75;;;19.60;99.90;;;;;;5091408;28;20628;-73
2021/07/25 00:12:53;;;;;;;1.13;0.93;;;19.70;99.90;;;;;;5089987;28;20196;-72
2021/07/25 00:15:19;;;;;;;1.08;0.63;;;19.80;99.90;;;;;;5091328;28;20175;-73
2021/07/25 00:17:46;;;;;;;0.60;0.60;;;19.80;99.90;;;;;;5091485;28;20164;-73
2021/07/25 00:20:12;;;;;;;1.27;0.70;;;19.80;99.90;;;;;;5091179;28;20478;-72
2021/07/25 00:22:39;;;;;;;0.80;0.75;;;19.70;99.90;;;;;;5091019;28;20195;-73
2021/07/25 00:25:09;;;;;;;0.28;0.28;;;19.80;99.90;;;;;;5089793;28;20165;-73
2021/07/25 00:27:41;;;;;;;0.50;0.45;;;19.80;99.90;;;;;;5091076;28;20182;-73
2021/07/25 00:30:15;;;;;;;0.73;0.63;;;19.90;99.90;;;;;;5090900;28;20175;-72
2021/07/25 00:32:41;;;;;;;0.68;0.60;;;20.20;99.90;;;;;;5091034;28;20247;-72
2021/07/25 00:35:09;;;;;;;0.50;0.50;;;20.20;99.90;;;;;;5090898;28;20160;-73
2021/07/25 00:37:35;;;;;;;0.45;0.45;;;20.20;99.90;;;;;;5090871;28;20153;-73
2021/07/25 00:40:02;;;;;;;1.35;0.73;;;20.10;99.90;;;;;;5090698;28;20152;-73
2021/07/25 00:42:38;;;;;;;0.80;0.73;;;20.10;99.90;;;;;;5090068;28;20203;-73
2021/07/25 00:45:05;;;;;;;1.80;0.55;;;20.00;99.90;;;;;;5089373;28;20245;-73
2021/07/25 00:47:31;;;;;;;0.75;0.75;;;19.90;99.90;;;;;;5090679;28;20211;-73
2021/07/25 00:49:57;;;;;;;0.85;0.63;;;19.80;99.90;;;;;;5089397;28;20183;-73
2021/07/25 00:52:22;;;;;;;0.35;0.35;;;19.90;99.90;;;;;;5090595;28;20200;-73
2021/07/25 00:54:48;;;;;;;0.95;0.93;;;19.80;99.90;;;;;;5090500;28;20161;-72
2021/07/25 00:57:14;;;;;;;0.88;0.63;;;19.80;99.90;;;;;;5090921;28;20187;-73
2021/07/25 00:59:41;;;;;;;0.63;0.63;;;19.90;99.90;;;;;;5090765;28;20191;-73
2021/07/25 01:02:07;;;;;;;0.20;0.20;;;19.80;99.90;;;;;;5090183;28;20270;-72
2021/07/25 01:04:43;;;;;;;0.10;0.10;;;19.90;99.90;;;;;;5088877;28;20214;-72
2021/07/25 01:07:20;;;;;;;1.38;1.27;;;19.90;99.90;;;;;;5090254;28;20164;-72
2021/07/25 01:10:05;;;;;;;0.88;0.88;;;19.90;99.90;;;;;;5090201;28;20186;-72
2021/07/25 01:12:56;;;;;;;0.88;0.88;;;19.80;99.90;;;;;;5090045;28;20199;-72
2021/07/25 01:15:26;;;;;;;0.70;0.20;;;19.80;99.90;;;;;;5088854;28;20236;-72
2021/07/25 01:17:55;;;;;;;1.05;0.75;;;19.70;99.90;;;;;;5090139;28;20621;-72
2021/07/25 01:20:23;;;;;;;0.47;0.47;;;19.50;99.90;;;;;;5089965;28;20160;-73
2021/07/25 01:22:51;;;;;;;0.82;0.73;;;19.40;99.90;;;;;;5089907;28;20227;-73
2021/07/25 01:25:19;;;;;;;1.65;1.10;;;19.40;99.90;;;;;;5089916;28;20175;-72
2021/07/25 01:27:48;;;;;;;0.57;0.47;;;19.50;99.90;;;;;;5089989;28;20153;-73
2021/07/25 01:30:17;;;;;;;2.25;0.65;;;19.50;99.90;;;;;;5089762;28;20225;-72
2021/07/25 01:32:44;;;;;;;1.67;0.68;;;19.50;99.90;;;;;;5089727;28;20207;-72
2021/07/25 01:35:14;;;;;;;0.50;0.50;;;19.40;99.90;;;;;;5089765;28;20213;-72
2021/07/25 01:37:41;;;;;;;0.70;0.55;;;19.50;99.90;;;;;;5089740;28;20164;-72
2021/07/25 01:40:26;;;;;;;1.08;1.08;;;19.50;99.90;;;;;;5088363;28;20168;-72
2021/07/25 01:42:54;;;;;;;0.10;0.10;;;19.60;99.90;;;;;;5089679;28;20156;-72
2021/07/25 01:45:20;;;;;;;0.50;0.50;;;19.50;99.90;;;;;;5088250;28;20164;-73
2021/07/25 01:47:46;;;;;;;2.95;0.90;;;19.50;99.90;;;;;;5088092;28;20295;-72
2021/07/25 01:50:14;;;;;;;0.60;0.60;;;19.50;99.90;;;;;;5089572;28;20210;-72
2021/07/25 01:52:41;;;;;;;0.38;0.38;;;19.50;99.90;;;;;;5089317;28;20203;-72
2021/07/25 01:55:08;;;;;;;0.20;0.20;;;19.50;99.90;;;;;;5088743;28;20180;-72
2021/07/25 01:57:34;;;;;;;0.20;0.20;;;19.40;99.90;;;;;;5089475;28;20152;-73
2021/07/25 02:00:00;;;;;;;1.45;0.55;;;19.30;99.90;;;;;;5089391;28;20163;-73
2021/07/25 02:02:26;;;;;;;0.38;0.38;;;19.30;99.90;;;;;;5089337;28;20200;-73
2021/07/25 02:04:52;;;;;;;0.30;0.30;;;19.30;99.90;;;;;;5088157;28;20651;-73
2021/07/25 02:07:18;;;;;;;0.10;0.10;;;19.30;99.90;;;;;;5088184;28;20171;-73
2021/07/25 02:09:44;;;;;;;2.92;0.95;;;19.10;99.90;;;;;;5089283;28;20198;-73
2021/07/25 02:12:11;;;;;;;0.75;0.75;;;19.00;99.90;;;;;;5089228;28;20191;-72
2021/07/25 02:14:38;;;;;;;0.80;0.80;;;18.90;99.90;;;;;;5089279;28;20151;-73
2021/07/25 02:17:06;;;;;;;0.15;0.15;;;18.90;99.90;;;;;;5089277;28;20158;-73
2021/07/25 02:19:32;;;;;;;0.63;0.63;;;18.80;99.90;;;;;;5087979;28;20191;-73
2021/07/25 02:21:58;;;;;;;0.55;0.55;;;18.70;99.90;;;;;;5087854;28;20202;-73
2021/07/25 02:24:25;;;;;;;0.65;0.65;;;18.60;99.90;;;;;;5089115;28;20695;-73
2021/07/25 02:26:52;;;;;;;1.27;1.15;;;18.70;99.90;;;;;;5089188;28;20173;-72
2021/07/25 02:29:18;;;;;;;0.50;0.50;;;18.80;99.90;;;;;;5089078;28;20160;-73
2021/07/25 02:31:45;;;;;;;0.32;0.32;;;18.70;99.90;;;;;;5089143;28;20675;-72
2021/07/25 02:34:11;;;;;;;0.10;0.10;;;18.70;99.90;;;;;;5089096;28;20182;-72
2021/07/25 02:36:38;;;;;;;0.10;0.10;;;18.70;99.90;;;;;;5087897;28;20670;-73
2021/07/25 02:39:05;;;;;;;0.32;0.32;;;18.70;99.90;;;;;;5089128;28;20219;-72
2021/07/25 02:41:31;;;;;;;1.00;0.50;;;18.80;99.90;;;;;;5088909;28;20195;-73
2021/07/25 02:43:57;;;;;;;0.40;0.25;;;18.90;99.90;;;;;;5087768;28;20169;-73
2021/07/25 02:46:23;;;;;;;0.35;0.35;;;19.00;99.90;;;;;;5088912;28;20168;-73
2021/07/25 02:48:49;;;;;;;0.20;0.20;;;19.00;99.90;;;;;;5088839;28;20281;-73
2021/07/25 02:51:15;;;;;;;0.85;0.65;;;18.90;99.90;;;;;;5088943;28;20199;-73
2021/07/25 02:53:41;;;;;;;0.20;0.20;;;18.90;99.90;;;;;;5087512;28;20196;-73
2021/07/25 02:56:07;;;;;;;0.25;0.25;;;19.10;99.90;;;;;;5088904;28;20160;-73
2021/07/25 02:58:33;;;;;;;0.65;0.38;;;19.20;99.90;;;;;;5088882;28;20160;-73
2021/07/25 03:00:59;;;;;;;2.28;0.63;;;19.00;99.90;;;;;;5087365;28;20191;-73
2021/07/25 03:03:25;;;;;;;0.73;0.73;;;19.10;99.90;;;;;;5088865;28;20228;-73
2021/07/25 03:05:50;;;;;;;0.22;0.22;;;19.20;99.90;;;;;;5090800;28;20168;-73
2021/07/25 03:08:16;;;;;;;0.52;0.52;;;19.10;99.90;;;;;;5092472;28;20194;-73
2021/07/25 03:10:42;;;;;;;3.63;0.63;;;19.00;99.90;;;;;;5090822;28;20207;-73
2021/07/25 03:13:08;;;;;;;0.63;0.63;;;18.90;99.90;;;;;;5090969;28;20275;-73
2021/07/25 03:15:34;;;;;;;0.52;0.52;;;18.70;99.90;;;;;;5092404;28;20168;-72
2021/07/25 03:18:00;;;;;;;0.10;0.10;;;18.70;99.90;;;;;;5092163;28;20152;-73
2021/07/25 03:20:26;;;;;;;0.45;0.45;;;18.60;99.90;;;;;;5092250;28;20156;-73
2021/07/25 03:22:53;;;;;;;0.38;0.38;;;18.60;99.90;;;;;;5092077;28;20595;-72
2021/07/25 03:25:19;;;;;;;0.20;0.20;;;18.70;99.90;;;;;;5072162;28;20224;-72
2021/07/25 03:27:45;;;;;;;0.73;0.65;;;18.60;99.90;;;;;;5070977;28;20169;-72
2021/07/25 03:30:11;;;;;;;1.05;0.98;;;18.60;99.90;;;;;;5070731;28;20520;-73
2021/07/25 03:32:37;;;;;;;1.05;0.93;;;18.60;99.90;;;;;;5072046;28;20231;-72
2021/07/25 03:35:03;;;;;;;0.20;0.20;;;18.60;99.90;;;;;;5070848;28;20168;-72
2021/07/25 03:37:29;;;;;;;0.75;0.63;;;18.60;99.90;;;;;;5071942;28;20149;-72
2021/07/25 03:39:55;;;;;;;0.20;0.20;;;18.60;99.90;;;;;;5070594;28;20630;-72
2021/07/25 03:42:21;;;;;;;1.50;0.95;;;18.60;99.90;;;;;;5071786;28;20256;-72
2021/07/25 03:44:47;;;;;;;0.38;0.38;;;18.70;99.90;;;;;;5070768;28;20168;-72
2021/07/25 03:47:15;;;;;;;0.60;0.60;;;18.70;99.90;;;;;;5070275;28;20220;-72
2021/07/25 03:49:42;;;;;;;0.40;0.40;;;18.80;99.90;;;;;;5070412;28;20181;-72
2021/07/25 03:52:12;;;;;;;1.80;1.00;;;18.90;99.90;;;;;;5071767;28;20207;-73
2021/07/25 03:54:42;;;;;;;0.65;0.50;;;18.80;99.90;;;;;;5070546;28;20168;-72
2021/07/25 03:57:11;;;;;;;0.40;0.40;;;18.60;99.90;;;;;;5071739;28;20156;-72
2021/07/25 03:59:37;;;;;;;0.90;0.70;;;18.50;99.90;;;;;;5071533;28;20183;-71
2021/07/25 04:02:04;;;;;;;2.05;1.15;;;18.60;99.90;;;;;;5071392;28;20195;-73
2021/07/25 04:04:31;;;;;;;0.63;0.63;;;18.70;99.90;;;;;;5070291;28;20203;-73
2021/07/25 04:06:57;;;;;;;0.10;0.10;;;18.90;99.90;;;;;;5071457;28;20167;-73
2021/07/25 04:09:23;;;;;;;0.80;0.80;;;19.00;99.90;;;;;;5070092;28;20192;-73
2021/07/25 04:11:53;;;;;;;0.43;0.43;;;19.20;99.90;;;;;;5071124;28;20196;-71
2021/07/25 04:14:19;;;;;;;0.55;0.55;;;19.20;99.90;;;;;;5071188;28;20182;-73
2021/07/25 04:16:45;;;;;;;0.35;0.35;;;19.30;99.90;;;;;;5070539;28;20642;-74
2021/07/25 04:19:11;;;;;;;0.40;0.40;;;19.10;99.90;;;;;;5071283;28;20157;-73
2021/07/25 04:21:37;;;;;;;0.30;0.30;;;19.00;99.90;;;;;;5071324;28;20190;-73
2021/07/25 04:24:03;;;;;;;0.38;0.38;;;19.00;99.90;;;;;;5083581;28;20195;-73
2021/07/25 04:26:29;;;;;;;0.32;0.32;;;19.00;99.90;;;;;;5089766;28;20168;-72
2021/07/25 04:28:55;;;;;;;0.52;0.52;;;19.20;99.90;;;;;;5091070;28;20579;-74
2021/07/25 04:31:22;;;;;;;0.45;0.45;;;19.50;99.90;;;;;;5090908;28;20214;-73
2021/07/25 04:33:52;;;;;;;0.30;0.17;;;19.80;99.90;;;;;;5090968;28;20223;-72
2021/07/25 04:36:25;;;;;;;0.55;0.55;;;20.10;99.90;;;;;;5091078;28;20277;-71
2021/07/25 04:38:52;;;;;;;0.55;0.55;;;20.10;99.90;;;;;;5089524;28;20176;-72
2021/07/25 04:41:22;;;;;;;0.47;0.40;;;20.30;99.90;;;;;;5089725;28;20195;-73
2021/07/25 04:44:28;;;;;;;0.73;0.70;;;20.30;99.90;;;;;;5091016;28;20628;-74
2021/07/25 04:46:57;;;;;;;0.65;0.63;;;20.50;99.90;;;;;;5090742;28;20266;-74
2021/07/25 04:49:40;;;;;;;0.13;0.13;;;20.80;99.90;;;;;;5089567;28;20178;-72
2021/07/25 04:52:09;;;;;;;0.20;0.20;;;21.40;99.90;;;;;;5090611;28;20200;-72
2021/07/25 04:54:38;;;;;;;0.55;0.55;;;21.70;99.90;;;;;;5090658;28;20156;-72
2021/07/25 04:57:06;;;;;;;0.30;0.30;;;21.80;99.90;;;;;;5090533;28;20206;-73
2021/07/25 04:59:44;;;;;;;0.28;0.20;;;21.70;99.90;;;;;;5090576;28;20167;-73
2021/07/25 05:02:11;;;;;;;0.85;0.85;;;22.00;99.90;;;;;;5090324;28;20194;-73
2021/07/25 05:04:37;;;;;;;0.13;0.13;;;22.40;99.90;;;;;;5090105;28;20163;-75
2021/07/25 05:07:04;;;;;;;0.85;0.85;;;22.70;99.90;;;;;;5088929;28;20248;-74
2021/07/25 05:09:30;;;;;;;0.88;0.88;;;22.80;99.90;;;;;;5090036;28;20166;-73
2021/07/25 05:12:18;;;;;;;0.50;0.50;;;23.10;99.90;;;;;;5088642;28;20206;-73
2021/07/25 05:14:48;;;;;;;0.47;0.47;;;22.90;99.90;;;;;;5090066;28;20155;-73
2021/07/25 05:17:51;;;;;;;0.10;0.10;;;22.90;99.90;;;;;;5085893;28;20176;-73
2021/07/25 05:20:19;;;;;;;0.55;0.55;;;23.00;99.90;;;;;;5089609;28;20179;-73
2021/07/25 05:23:15;;;;;;;0.17;0.17;;;23.10;99.90;;;;;;5088606;28;20175;-73
2021/07/25 05:25:47;;;;;;;0.30;0.28;;;23.60;99.90;;;;;;5089930;28;20164;-73
2021/07/25 05:28:13;;;;;;;0.38;0.38;;;23.70;99.90;;;;;;5088276;28;20167;-73
2021/07/25 05:30:41;;;;;;;0.20;0.20;;;23.20;99.90;;;;;;5088365;28;20195;-72
2021/07/25 05:33:07;;;;;;;0.17;0.17;;;23.00;99.90;;;;;;5089688;28;20213;-73
2021/07/25 05:35:34;;;;;;;1.05;0.70;;;23.50;99.90;;;;;;5088566;28;20625;-73
2021/07/25 05:38:00;;;;;;;0.38;0.38;;;23.40;99.90;;;;;;5089747;28;20225;-72
2021/07/25 05:40:26;;;;;;;1.33;0.65;;;24.10;99.90;;;;;;5088273;28;20258;-73
2021/07/25 05:42:51;;;;;;;0.52;0.47;;;24.80;99.90;;;;;;5089722;28;20163;-72
2021/07/25 05:45:17;;;;;;;0.38;0.38;;;24.70;99.90;;;;;;5089534;28;20160;-72
2021/07/25 05:47:43;;;;;;;0.73;0.73;;;24.30;99.90;;;;;;5089400;28;20223;-72
2021/07/25 05:50:09;;;;;;;0.40;0.40;;;24.00;99.90;;;;;;5089463;28;20179;-73
2021/07/25 05:52:53;;;;;;;0.40;0.32;;;24.30;99.90;;;;;;5089389;28;20221;-72
2021/07/25 05:55:21;;;;;;;0.20;0.20;;;24.30;99.90;;;;;;5088274;28;20175;-73
2021/07/25 05:57:47;;;;;;;0.60;0.35;;;24.80;99.90;;;;;;5088294;28;20175;-72
2021/07/25 06:00:14;;;;;;;0.82;0.82;;;25.90;99.90;;;;;;5088223;28;20174;-73
2021/07/25 06:02:54;;;;;;;0.20;0.20;;;26.90;99.90;;;;;;5088312;28;20195;-72
2021/07/25 06:05:21;;;;;;;0.30;0.30;;;26.90;99.90;;;;;;5089381;28;20165;-72
2021/07/25 06:07:47;;;;;;;6.50;1.20;;;27.50;99.90;;;;;;5089249;28;20159;-72
2021/07/25 06:10:13;;;;;;;0.65;0.65;;;27.00;99.90;;;;;;5088066;28;20205;-71
2021/07/25 06:12:40;;;;;;;0.17;0.17;;;26.80;99.90;;;;;;5089233;28;20198;-72
2021/07/25 06:15:07;;;;;;;0.30;0.30;;;27.00;99.90;;;;;;5071456;28;20536;-72
2021/07/25 06:17:33;;;;;;;8.68;1.48;;;27.40;99.90;;;;;;5089268;28;20164;-72
2021/07/25 06:19:59;;;;;;;2.05;1.52;;;28.10;99.90;;;;;;5089151;28;20186;-72
2021/07/25 06:22:24;;;;;;;0.28;0.28;;;27.60;99.90;;;;;;5089135;28;20599;-72
2021/07/25 06:24:50;;;;;;;0.43;0.38;;;28.80;99.90;;;;;;5089057;28;20251;-72
2021/07/25 06:27:16;;;;;;;0.60;0.60;;;29.10;99.90;;;;;;5089150;28;20159;-71
2021/07/25 06:29:42;;;;;;;0.47;0.47;;;29.20;99.90;;;;;;5089125;28;20178;-72
2021/07/25 06:32:08;;;;;;;0.47;0.47;;;29.40;99.90;;;;;;5088786;28;20198;-71
2021/07/25 06:34:34;;;;;;;0.77;0.73;;;29.70;99.90;;;;;;5089024;28;20177;-71
2021/07/25 06:37:00;;;;;;;0.20;0.20;;;29.40;99.90;;;;;;5089119;28;20175;-71
2021/07/25 06:39:26;;;;;;;0.43;0.43;;;28.40;99.90;;;;;;5088920;28;20164;-72
2021/07/25 06:41:52;;;;;;;0.77;0.77;;;28.90;99.90;;;;;;5092962;28;20191;-71
2021/07/25 06:44:18;;;;;;;0.63;0.50;;;29.40;99.90;;;;;;5093081;28;20156;-71
2021/07/25 06:46:44;;;;;;;0.40;0.40;;;30.20;99.90;;;;;;5091484;28;20182;-72
2021/07/25 06:49:09;;;;;;;0.43;0.43;;;30.20;99.90;;;;;;5092939;28;20164;-72
2021/07/25 06:51:37;;;;;;;0.47;0.47;;;30.50;99.90;;;;;;5092805;28;20188;-72
2021/07/25 06:54:03;;;;;;;0.20;0.20;;;29.60;99.90;;;;;;5091427;28;20203;-71
2021/07/25 06:56:29;;;;;;;0.20;0.20;;;29.90;99.90;;;;;;5092823;28;20269;-72
2021/07/25 06:58:55;;;;;;;1.10;1.00;;;30.80;99.90;;;;;;5092642;28;20160;-71
2021/07/25 07:01:21;;;;;;;0.45;0.45;;;31.20;99.90;;;;;;5092598;28;20187;-72
2021/07/25 07:03:47;;;;;;;0.52;0.52;;;31.10;99.90;;;;;;5092660;28;20168;-71
2021/07/25 07:06:13;;;;;;;0.40;0.32;;;30.40;99.90;;;;;;5091342;28;20171;-71
2021/07/25 07:08:38;;;;;;;0.43;0.30;;;30.20;99.90;;;;;;5091205;28;20168;-71
2021/07/25 07:11:04;;;;;;;0.60;0.30;;;29.90;99.90;;;;;;5091032;28;20195;-71
2021/07/25 07:13:30;;;;;;;0.75;0.63;;;30.50;99.90;;;;;;5092458;28;20191;-70
2021/07/25 07:15:57;;;;;;;0.65;0.52;;;31.10;99.90;;;;;;5092431;28;20159;-72
2021/07/25 07:18:23;;;;;;;0.25;0.25;;;31.50;99.90;;;;;;5092274;28;20148;-71
2021/07/25 07:20:49;;;;;;;0.60;0.60;;;31.50;99.90;;;;;;5092070;28;20222;-70
2021/07/25 07:23:21;;;;;;;1.65;0.55;;;30.80;99.90;;;;;;5092082;28;20163;-70
2021/07/25 07:25:52;;;;;;;0.85;0.70;;;30.30;99.90;;;;;;5092167;28;20156;-70
2021/07/25 07:28:20;;;;;;;1.17;1.17;;;30.20;99.90;;;;;;5092023;28;20223;-70
2021/07/25 07:30:51;;;;;;;1.85;0.82;;;30.20;99.90;;;;;;5090546;28;20199;-71
2021/07/25 07:33:19;;;;;;;0.43;0.43;;;30.30;99.90;;;;;;5091954;28;20198;-71
2021/07/25 07:35:46;;;;;;;0.75;0.75;;;30.90;99.90;;;;;;5090428;28;20238;-71
2021/07/25 07:38:14;;;;;;;0.75;0.75;;;31.40;99.90;;;;;;5090700;28;20175;-71
2021/07/25 07:40:43;;;;;;;0.57;0.57;;;32.10;99.90;;;;;;5091838;28;20583;-71
2021/07/25 07:43:10;;;;;;;0.60;0.60;;;31.70;99.90;;;;;;5091928;28;20219;-71
2021/07/25 07:45:37;;;;;;;1.33;1.23;;;32.50;99.90;;;;;;5091809;28;20208;-71
2021/07/25 07:48:04;;;;;;;0.77;0.77;;;33.00;99.90;;;;;;5091574;28;20578;-71
2021/07/25 07:50:30;;;;;;;2.10;0.50;;;34.00;99.90;;;;;;5091640;28;20207;-72
2021/07/25 07:52:57;;;;;;;0.93;0.55;;;34.00;99.90;;;;;;5091696;28;20190;-71
2021/07/25 07:55:23;;;;;;;0.75;0.75;;;34.00;99.90;;;;;;5091589;28;20171;-72
2021/07/25 07:57:49;;;;;;;1.27;1.02;;;32.80;99.90;;;;;;5090379;28;20233;-72
2021/07/25 08:00:15;;;;;;;0.40;0.40;;;32.40;99.90;;;;;;5091666;28;20639;-73
2021/07/25 08:02:43;;;;;;;1.15;1.15;;;33.20;99.90;;;;;;5091532;28;20195;-72
2021/07/25 08:05:10;;;;;;;2.30;0.65;;;33.50;99.90;;;;;;5091583;28;20162;-72
2021/07/25 08:07:37;;;;;;;0.75;0.70;;;33.70;99.90;;;;;;5091368;28;20160;-72
2021/07/25 08:10:05;;;;;;;0.70;0.70;;;33.50;99.90;;;;;;5091450;28;20160;-71
2021/07/25 08:12:31;;;;;;;1.73;1.08;;;34.00;99.90;;;;;;5091527;28;20191;-72
2021/07/25 08:14:57;;;;;;;1.52;0.80;;;34.10;99.90;;;;;;5091242;28;20166;-72
2021/07/25 08:17:23;;;;;;;1.05;1.05;;;33.00;99.90;;;;;;5091255;28;20268;-72
2021/07/25 08:19:49;;;;;;;1.17;1.08;;;31.40;99.90;;;;;;5091219;28;20605;-72
2021/07/25 08:22:15;;;;;;;1.67;1.38;;;30.70;99.90;;;;;;5091057;28;20274;-72
2021/07/25 08:24:41;;;;;;;0.88;0.88;;;30.40;99.90;;;;;;5091067;28;20171;-72
2021/07/25 08:27:09;;;;;;;1.38;0.90;;;31.10;99.90;;;;;;5091055;28;20170;-72
2021/07/25 08:29:36;;;;;;;1.35;1.00;;;31.00;99.90;;;;;;5090894;28;20164;-72
2021/07/25 08:32:06;;;;;;;0.70;0.70;;;31.10;99.90;;;;;;5090817;28;20275;-72
2021/07/25 08:34:33;;;;;;;0.65;0.50;;;31.10;99.90;;;;;;5089622;28;20171;-72
2021/07/25 08:36:59;;;;;;;0.95;0.80;;;31.00;99.90;;;;;;5090908;28;20160;-72
2021/07/25 08:39:25;;;;;;;0.80;0.80;;;32.20;99.90;;;;;;5090830;28;20165;-72
2021/07/25 08:41:59;;;;;;;1.38;1.05;;;32.10;99.90;;;;;;5090761;28;20267;-72
2021/07/25 08:44:43;;;;;;;2.70;1.38;;;31.40;99.90;;;;;;5089501;28;20182;-73
2021/07/25 08:47:18;;;;;;;0.55;0.55;;;32.10;99.90;;;;;;5090507;28;20243;-73
2021/07/25 08:49:54;;;;;;;1.85;0.90;;;32.50;99.90;;;;;;5090574;28;20170;-73
2021/07/25 08:52:26;;;;;;;0.60;0.60;;;32.40;99.90;;;;;;5090320;28;20372;-73
2021/07/25 08:54:54;;;;;;;5.47;1.00;;;33.20;99.90;;;;;;5090679;28;20162;-72
2021/07/25 08:57:25;;;;;;;2.00;1.70;;;33.60;99.90;;;;;;5090424;28;20211;-72
2021/07/25 08:59:53;;;;;;;0.82;0.70;;;32.80;99.90;;;;;;5090535;28;20155;-72
2021/07/25 09:02:26;;;;;;;1.58;1.30;;;32.60;99.90;;;;;;5088685;28;20198;-73
2021/07/25 09:04:54;;;;;;;1.83;1.38;;;33.10;99.90;;;;;;5090220;28;20156;-73
2021/07/25 09:07:22;;;;;;;0.80;0.80;;;33.90;99.90;;;;;;5088854;28;20163;-73
2021/07/25 09:09:51;;;;;;;1.08;0.80;;;34.00;99.90;;;;;;5088878;28;20179;-73
2021/07/25 09:12:19;;;;;;;1.13;1.02;;;33.80;99.90;;;;;;5089943;28;20207;-73
2021/07/25 09:14:54;;;;;;;1.40;1.13;;;34.00;99.90;;;;;;5090062;28;20151;-73
2021/07/25 09:17:21;;;;;;;0.77;0.77;;;34.50;99.90;;;;;;5090215;28;20219;-74
2021/07/25 09:20:13;;;;;;;1.13;0.80;;;35.70;99.90;;;;;;5088689;28;20183;-73
2021/07/25 09:22:48;;;;;;;1.70;1.20;;;36.40;99.90;;;;;;5089842;28;20296;-73
2021/07/25 09:25:20;;;;;;;0.90;0.90;;;36.70;99.90;;;;;;5089856;28;20619;-73
2021/07/25 09:28:11;;;;;;;1.40;1.13;;;36.70;99.90;;;;;;5089820;28;20185;-73
2021/07/25 09:30:37;;;;;;;4.00;1.48;;;37.00;99.90;;;;;;5083449;28;20191;-73
2021/07/25 09:33:33;;;;;;;1.25;1.10;;;36.40;99.90;;;;;;5087826;28;20199;-72
2021/07/25 09:36:13;;;;;;;0.50;0.50;;;35.20;99.90;;;;;;5088045;28;20163;-72
2021/07/25 09:38:42;;;;;;;1.50;0.98;;;34.10;99.90;;;;;;5089787;28;20159;-72
2021/07/25 09:41:16;;;;;;;1.15;0.85;;;34.70;99.90;;;;;;5087767;28;20191;-72
2021/07/25 09:43:42;;;;;;;1.40;1.10;;;35.50;99.90;;;;;;5089276;28;20191;-72
2021/07/25 09:46:08;;;;;;;2.92;1.35;;;36.40;99.90;;;;;;5089684;28;20163;-73
2021/07/25 09:48:35;;;;;;;0.70;0.70;;;37.10;99.90;;;;;;5089361;28;20297;-72
2021/07/25 09:51:17;;;;;;;4.18;1.38;;;34.90;99.90;;;;;;5088879;28;20202;-72
2021/07/25 09:53:44;;;;;;;0.90;0.82;;;36.00;99.90;;;;;;5089230;28;20206;-72
2021/07/25 09:56:15;;;;;;;1.15;0.93;;;35.20;99.90;;;;;;5088124;28;20171;-71
2021/07/25 09:58:42;;;;;;;1.13;0.80;;;33.40;99.90;;;;;;5089175;28;20156;-72
2021/07/25 10:01:08;;;;;;;1.00;1.00;;;33.50;99.90;;;;;;5088804;28;20190;-71
2021/07/25 10:03:34;;;;;;;1.27;1.17;;;33.20;99.90;;;;;;5089124;28;20163;-72
2021/07/25 10:06:22;;;;;;;1.55;1.25;;;33.90;99.90;;;;;;5089211;28;20159;-72
2021/07/25 10:09:06;;;;;;;2.25;1.30;;;34.10;99.90;;;;;;5089262;28;20636;-72
2021/07/25 10:11:33;;;;;;;1.13;1.02;;;35.20;99.90;;;;;;5088524;28;20358;-72
2021/07/25 10:14:00;;;;;;;1.45;1.35;;;33.80;99.90;;;;;;5088764;28;20226;-72
2021/07/25 10:16:25;;;;;;;1.60;1.08;;;33.80;99.90;;;;;;5088719;28;20155;-72
2021/07/25 10:18:53;;;;;;;0.60;0.60;;;34.30;99.90;;;;;;5087779;28;20261;-72
2021/07/25 10:21:20;;;;;;;0.32;0.32;;;35.10;99.90;;;;;;5087294;28;20201;-71
2021/07/25 10:23:55;;;;;;;2.03;0.80;;;34.20;99.90;;;;;;5088730;28;20168;-72
2021/07/25 10:26:27;;;;;;;1.60;0.82;;;34.20;99.90;;;;;;5089113;28;20183;-71
2021/07/25 10:28:58;;;;;;;0.55;0.55;;;33.30;99.90;;;;;;5088844;28;20253;-71
2021/07/25 10:31:25;;;;;;;3.80;1.50;;;33.30;99.90;;;;;;5088501;28;20672;-72
2021/07/25 10:33:53;;;;;;;0.75;0.65;;;32.00;99.90;;;;;;5088892;28;20274;-71
2021/07/25 10:36:20;;;;;;;2.55;0.82;;;32.50;99.90;;;;;;5087639;28;20191;-71
2021/07/25 10:38:47;;;;;;;1.50;0.98;;;33.30;99.90;;;;;;5088862;28;20156;-72
2021/07/25 10:41:21;;;;;;;0.88;0.88;;;34.00;99.90;;;;;;5087139;28;20282;-71
2021/07/25 10:43:47;;;;;;;0.88;0.85;;;34.40;99.90;;;;;;5087960;28;20174;-72
2021/07/25 10:46:23;;;;;;;2.42;0.95;;;34.30;99.90;;;;;;5087398;28;20167;-72
2021/07/25 10:49:18;;;;;;;1.50;1.38;;;35.50;99.90;;;;;;5087270;28;20231;-72
2021/07/25 10:51:59;;;;;;;1.83;1.73;;;36.00;99.90;;;;;;5029228;28;20204;-72
2021/07/25 10:54:25;;;;;;;0.82;0.82;;;35.10;99.90;;;;;;5046671;28;20165;-71
2021/07/25 10:57:15;;;;;;;3.05;1.17;;;33.20;99.90;;;;;;5046557;28;20284;-72
2021/07/25 10:59:43;;;;;;;1.50;1.40;;;33.00;99.90;;;;;;5029953;28;20165;-71
2021/07/25 11:02:29;;;;;;;1.38;1.27;;;33.00;99.90;;;;;;5045872;28;20205;-72
2021/07/25 11:04:55;;;;;;;1.73;1.63;;;33.30;99.90;;;;;;5029917;28;20161;-72
2021/07/25 11:07:23;;;;;;;15.45;1.98;;;33.80;99.90;;;;;;5046601;28;20176;-72
2021/07/25 11:10:00;;;;;;;0.90;0.90;;;34.60;99.90;;;;;;5046504;28;20184;-72
2021/07/25 11:12:52;;;;;;;1.20;1.20;;;35.30;99.90;;;;;;5045552;28;20212;-71
2021/07/25 11:15:33;;;;;;;0.65;0.65;;;35.10;99.90;;;;;;5046299;28;20260;-71
2021/07/25 11:18:02;;;;;;;3.25;1.75;;;35.30;99.90;;;;;;5046453;28;20577;-72
2021/07/25 11:20:35;;;;;;;1.42;1.25;;;35.30;99.90;;;;;;5046117;28;20244;-72
2021/07/25 11:23:03;;;;;;;1.73;1.33;;;36.00;99.90;;;;;;5045750;28;20169;-72
2021/07/25 11:25:33;;;;;;;1.48;1.02;;;34.80;99.90;;;;;;5046648;28;20161;-72
2021/07/25 11:27:59;;;;;;;1.50;1.40;;;33.00;99.90;;;;;;5069024;28;20179;-72
2021/07/25 11:30:51;;;;;;;1.17;1.08;;;33.20;99.90;;;;;;5091762;28;20175;-72
2021/07/25 11:33:45;;;;;;;1.20;1.10;;;34.10;99.90;;;;;;5091401;28;20183;-72
2021/07/25 11:36:16;;;;;;;1.67;1.30;;;34.10;99.90;;;;;;5091824;28;20166;-72
2021/07/25 11:38:47;;;;;;;1.75;1.13;;;34.10;99.90;;;;;;5092084;28;20219;-72
2021/07/25 11:41:19;;;;;;;2.00;1.83;;;34.80;99.90;;;;;;5091880;28;20804;-71
2021/07/25 11:43:52;;;;;;;2.60;1.85;;;35.00;99.90;;;;;;5090543;28;20168;-72
2021/07/25 11:46:22;;;;;;;1.45;0.88;;;34.30;99.90;;;;;;5090500;28;20167;-72
2021/07/25 11:49:00;;;;;;;1.67;1.40;;;33.90;99.90;;;;;;5090254;28;20231;-72
2021/07/25 11:51:26;;;;;;;1.85;1.73;;;33.70;99.90;;;;;;5091543;28;20202;-72
2021/07/25 11:53:51;;;;;;;1.13;0.85;;;33.50;99.90;;;;;;5091622;28;20187;-72
2021/07/25 11:56:17;;;;;;;1.73;1.50;;;33.50;99.90;;;;;;5090374;28;20171;-72
2021/07/25 11:59:08;;;;;;;1.50;1.20;;;34.40;99.90;;;;;;5091595;28;20178;-72
2021/07/25 12:01:35;;;;;;;1.35;0.82;;;35.20;99.90;;;;;;5090227;28;20259;-72
2021/07/25 12:04:22;;;;;;;1.50;1.40;;;35.40;99.90;;;;;;5090269;28;20178;-72
2021/07/25 12:06:57;;;;;;;1.13;0.73;;;36.20;99.90;;;;;;5091614;28;20167;-72
2021/07/25 12:09:23;;;;;;;2.95;1.95;;;35.20;99.90;;;;;;5091327;28;20159;-72
2021/07/25 12:11:58;;;;;;;1.83;1.48;;;35.10;99.90;;;;;;5091346;28;20202;-72
2021/07/25 12:14:32;;;;;;;4.57;2.45;;;35.00;99.90;;;;;;5091232;28;20165;-72
2021/07/25 12:16:58;;;;;;;1.98;1.83;;;34.30;99.90;;;;;;5090302;28;20195;-72
2021/07/25 12:19:24;;;;;;;2.20;1.55;;;34.60;99.90;;;;;;5089884;28;20182;-72
2021/07/25 12:22:24;;;;;;;1.80;1.52;;;33.30;99.90;;;;;;5086681;28;20195;-72
2021/07/25 12:24:54;;;;;;;2.58;1.98;;;32.90;99.90;;;;;;5086847;28;20273;-70
2021/07/25 12:27:31;;;;;;;1.55;1.15;;;32.60;99.90;;;;;;5086691;28;20179;-71
2021/07/25 12:30:13;;;;;;;1.60;1.40;;;32.70;99.90;;;;;;5088385;28;20279;-71
2021/07/25 12:32:40;;;;;;;2.42;1.45;;;32.40;99.90;;;;;;5070756;28;20204;-70
2021/07/25 12:35:09;;;;;;;2.28;2.08;;;31.60;99.90;;;;;;5069626;28;20164;-70
2021/07/25 12:37:55;;;;;;;2.40;1.88;;;31.20;99.90;;;;;;5068569;28;20232;-70
2021/07/25 12:40:26;;;;;;;2.10;1.90;;;31.00;99.90;;;;;;5087363;28;20395;-68
2021/07/25 12:42:59;;;;;;;7.00;1.90;;;30.90;99.90;;;;;;5087301;28;20280;-71
2021/07/25 12:45:32;;;;;;;2.17;1.02;;;31.20;99.90;;;;;;5089387;28;20180;-71
2021/07/25 12:48:19;;;;;;;2.10;1.67;;;31.90;99.90;;;;;;5090266;28;20231;-70
2021/07/25 12:50:46;;;;;;;2.90;1.48;;;31.90;99.90;;;;;;5089124;28;20201;-71
2021/07/25 12:53:21;;;;;;;1.77;1.27;;;31.30;99.90;;;;;;5090364;28;20250;-70
2021/07/25 12:55:49;;;;;;;1.80;1.30;;;31.00;99.90;;;;;;5090529;28;20151;-70
2021/07/25 12:58:15;;;;;;;0.90;0.90;;;30.80;99.90;;;;;;5090470;28;20239;-70
2021/07/25 13:06:17;;;;;;;1.63;1.27;;;31.00;99.90;;;;;;5090213;28;20178;-70